Overview Statistics Trail Chart Weather Telemetry Raw packets
 

This is the latest recevied weather packets stored in our database for station/object KE7PGE-13. If no packets are shown the sender has not sent any weather packets the latest 10 day(s).

<< 1 2 3 4 >>
Time Temp. Humidity Pressure Rain* Wind** Luminosity Snow
1788691205 11.11° C 92% 1017.1 hPa 0 mm - - -
1788685804 12.22° C 91% 1017.2 hPa 0 mm - - -
1788678603 12.78° C 89% 1017.7 hPa 0 mm - - -
1788666005 15° C 83% 1018.2 hPa 0 mm - - -
1788664204 15.56° C 82% 1018.1 hPa 0 mm - - -
1788658805 18.33° C 75% 1018 hPa 0 mm - - -
1788653405 20° C 73% 1017.7 hPa 0 mm - - -
1788644405 18.89° C 68% 1018.9 hPa 0 mm - - -
1788639004 15.56° C 85% 1019.2 hPa 0 mm - - -
1788637204 15.56° C 91% 1019.2 hPa 0 mm - - -
1788624604 10.56° C 98% 1019.3 hPa 0 mm - - -
1788622805 10° C 97% 1018.9 hPa 0 mm - - -
1788621006 10° C 97% 1018.8 hPa 0 mm - - -
1788617403 10° C 98% 1018.3 hPa 0 mm - - -
1788601204 10° C 97% 1017.5 hPa 0 mm - - -
1788599405 10.56° C 97% 1017.3 hPa 0 mm - - -
1788592204 11.11° C 96% 1017 hPa 0 mm - - -
1788586804 11.67° C 96% 1017.1 hPa 0 mm - - -
1788585004 11.67° C 96% 1017.2 hPa 0 mm - - -
1788572405 13.33° C 94% 1016.3 hPa 0 mm - - -
1788567004 17.22° C 73% 1015.7 hPa 0 mm - - -
1788561604 20° C 66% 1014.7 hPa 0 mm - - -
1788559804 21.11° C 59% 1014.7 hPa 0 mm - - -
1788556204 18.33° C 73% 1014.7 hPa 0 mm - - -
1788552604 17.78° C 74% 1014.9 hPa 0 mm - - -

* Rain latest hour (hover to see other rain measurements)
** Current wind speed in m/s (hover to see current wind gust speed)